sensor_id;sensor_type;location;lat;lon;timestamp;pressure;altitude;pressure_sealevel;temperature;humidity
50057;BME280;36875;49.468;11.200;2023-05-12T00:00:47;97740.53;;;18.92;54.24
50057;BME280;36875;49.468;11.200;2023-05-12T00:03:13;97745.97;;;18.92;54.75
50057;BME280;36875;49.468;11.200;2023-05-12T00:05:39;97754.97;;;18.93;54.42
50057;BME280;36875;49.468;11.200;2023-05-12T00:08:04;97754.16;;;18.92;54.37
50057;BME280;36875;49.468;11.200;2023-05-12T00:10:30;97745.50;;;18.90;54.52
50057;BME280;36875;49.468;11.200;2023-05-12T00:12:55;97756.09;;;18.92;54.27
50057;BME280;36875;49.468;11.200;2023-05-12T00:15:21;97745.19;;;18.92;54.32
50057;BME280;36875;49.468;11.200;2023-05-12T00:17:48;97749.00;;;18.91;54.50
50057;BME280;36875;49.468;11.200;2023-05-12T00:20:13;97747.91;;;18.92;54.49
50057;BME280;36875;49.468;11.200;2023-05-12T00:22:40;97743.56;;;18.91;54.41
50057;BME280;36875;49.468;11.200;2023-05-12T00:25:06;97747.09;;;18.91;54.27
50057;BME280;36875;49.468;11.200;2023-05-12T00:27:32;97745.50;;;18.90;54.57
50057;BME280;36875;49.468;11.200;2023-05-12T00:29:57;97742.25;;;18.88;54.59
50057;BME280;36875;49.468;11.200;2023-05-12T00:32:23;97738.41;;;18.89;54.53
50057;BME280;36875;49.468;11.200;2023-05-12T00:34:50;97741.97;;;18.90;54.47
50057;BME280;36875;49.468;11.200;2023-05-12T00:37:17;97737.59;;;18.88;54.42
50057;BME280;36875;49.468;11.200;2023-05-12T00:39:43;97735.69;;;18.89;54.34
50057;BME280;36875;49.468;11.200;2023-05-12T00:42:08;97728.94;;;18.86;54.46
50057;BME280;36875;49.468;11.200;2023-05-12T00:44:34;97734.09;;;18.88;54.53
50057;BME280;36875;49.468;11.200;2023-05-12T00:46:59;97734.88;;;18.88;54.21
50057;BME280;36875;49.468;11.200;2023-05-12T00:49:26;97735.97;;;18.87;54.03
50057;BME280;36875;49.468;11.200;2023-05-12T00:51:53;97732.47;;;18.87;54.11
50057;BME280;36875;49.468;11.200;2023-05-12T00:54:19;97735.19;;;18.87;54.28
50057;BME280;36875;49.468;11.200;2023-05-12T00:56:45;97733.25;;;18.87;54.04
50057;BME280;36875;49.468;11.200;2023-05-12T00:59:10;97735.19;;;18.87;54.29
50057;BME280;36875;49.468;11.200;2023-05-12T01:01:36;97730.53;;;18.87;54.20
50057;BME280;36875;49.468;11.200;2023-05-12T01:04:02;97727.00;;;18.87;54.13
50057;BME280;36875;49.468;11.200;2023-05-12T01:06:32;97728.13;;;18.86;54.23
50057;BME280;36875;49.468;11.200;2023-05-12T01:09:01;97723.47;;;18.86;54.18
50057;BME280;36875;49.468;11.200;2023-05-12T01:11:28;97725.41;;;18.86;54.27
50057;BME280;36875;49.468;11.200;2023-05-12T01:13:53;97728.13;;;18.86;53.90
50057;BME280;36875;49.468;11.200;2023-05-12T01:16:22;97730.03;;;18.85;54.15
50057;BME280;36875;49.468;11.200;2023-05-12T01:18:49;97725.41;;;18.86;54.16
50057;BME280;36875;49.468;11.200;2023-05-12T01:21:18;97728.13;;;18.86;54.04
50057;BME280;36875;49.468;11.200;2023-05-12T01:23:47;97721.06;;;18.85;53.73
50057;BME280;36875;49.468;11.200;2023-05-12T01:26:14;97714.81;;;18.84;54.12
50057;BME280;36875;49.468;11.200;2023-05-12T01:28:41;97713.78;;;18.80;54.07
50057;BME280;36875;49.468;11.200;2023-05-12T01:31:07;97719.47;;;18.84;53.71
50057;BME280;36875;49.468;11.200;2023-05-12T01:33:33;97715.91;;;18.83;53.89
50057;BME280;36875;49.468;11.200;2023-05-12T01:35:58;97717.53;;;18.84;53.81
50057;BME280;36875;49.468;11.200;2023-05-12T01:38:25;97721.06;;;18.85;53.94
50057;BME280;36875;49.468;11.200;2023-05-12T01:40:51;97716.75;;;18.84;54.10
50057;BME280;36875;49.468;11.200;2023-05-12T01:43:17;97714.00;;;18.84;54.00
50057;BME280;36875;49.468;11.200;2023-05-12T01:45:43;97719.25;;;18.80;54.03
50057;BME280;36875;49.468;11.200;2023-05-12T01:48:08;97711.28;;;18.84;54.08
50057;BME280;36875;49.468;11.200;2023-05-12T01:50:34;97706.44;;;18.81;53.62
50057;BME280;36875;49.468;11.200;2023-05-12T01:53:00;97705.41;;;18.77;53.71
50057;BME280;36875;49.468;11.200;2023-05-12T01:55:25;97706.03;;;18.74;53.62
50057;BME280;36875;49.468;11.200;2023-05-12T01:57:51;97718.94;;;18.82;53.58
50057;BME280;36875;49.468;11.200;2023-05-12T02:00:18;97721.66;;;18.82;53.64
50057;BME280;36875;49.468;11.200;2023-05-12T02:02:43;97712.38;;;18.83;53.94
50057;BME280;36875;49.468;11.200;2023-05-12T02:05:09;97718.13;;;18.81;53.90
50057;BME280;36875;49.468;11.200;2023-05-12T02:07:34;97717.84;;;18.83;53.47
50057;BME280;36875;49.468;11.200;2023-05-12T02:10:00;97709.97;;;18.81;53.55
50057;BME280;36875;49.468;11.200;2023-05-12T02:12:25;97712.69;;;18.81;53.69
50057;BME280;36875;49.468;11.200;2023-05-12T02:14:51;97717.34;;;18.81;53.50
50057;BME280;36875;49.468;11.200;2023-05-12T02:17:18;97709.16;;;18.81;53.51
50057;BME280;36875;49.468;11.200;2023-05-12T02:19:43;97711.88;;;18.81;53.44
50057;BME280;36875;49.468;11.200;2023-05-12T02:22:08;97710.22;;;18.80;53.40
50057;BME280;36875;49.468;11.200;2023-05-12T02:24:34;97712.97;;;18.80;53.40
50057;BME280;36875;49.468;11.200;2023-05-12T02:26:59;97699.44;;;18.75;53.62
50057;BME280;36875;49.468;11.200;2023-05-12T02:29:25;97712.97;;;18.80;53.50
50057;BME280;36875;49.468;11.200;2023-05-12T02:31:50;97712.97;;;18.80;53.56
50057;BME280;36875;49.468;11.200;2023-05-12T02:34:17;97707.50;;;18.80;53.63
50057;BME280;36875;49.468;11.200;2023-05-12T02:36:43;97711.38;;;18.79;53.33
50057;BME280;36875;49.468;11.200;2023-05-12T02:39:08;97705.91;;;18.79;53.49
50057;BME280;36875;49.468;11.200;2023-05-12T02:41:34;97705.91;;;18.79;53.44
50057;BME280;36875;49.468;11.200;2023-05-12T02:43:59;97703.19;;;18.79;53.72
50057;BME280;36875;49.468;11.200;2023-05-12T02:46:25;97713.25;;;18.78;53.35
50057;BME280;36875;49.468;11.200;2023-05-12T02:48:50;97707.00;;;18.78;53.66
50057;BME280;36875;49.468;11.200;2023-05-12T02:51:17;97709.75;;;18.78;53.33
50057;BME280;36875;49.468;11.200;2023-05-12T02:53:43;97705.09;;;18.78;53.58
50057;BME280;36875;49.468;11.200;2023-05-12T02:56:08;97708.13;;;18.77;53.32
50057;BME280;36875;49.468;11.200;2023-05-12T02:58:34;97702.69;;;18.77;53.07
50057;BME280;36875;49.468;11.200;2023-05-12T03:00:59;97699.97;;;18.77;53.47
50057;BME280;36875;49.468;11.200;2023-05-12T03:03:25;97699.97;;;18.77;53.26
50057;BME280;36875;49.468;11.200;2023-05-12T03:05:50;97698.03;;;18.77;53.48
50057;BME280;36875;49.468;11.200;2023-05-12T03:08:18;97695.63;;;18.76;53.21
50057;BME280;36875;49.468;11.200;2023-05-12T03:10:44;97702.69;;;18.77;53.22
50057;BME280;36875;49.468;11.200;2023-05-12T03:13:09;97701.06;;;18.76;53.47
50057;BME280;36875;49.468;11.200;2023-05-12T03:15:35;97698.34;;;18.76;53.45
50057;BME280;36875;49.468;11.200;2023-05-12T03:18:01;97703.78;;;18.76;53.02
50057;BME280;36875;49.468;11.200;2023-05-12T03:20:26;97696.41;;;18.76;53.21
50057;BME280;36875;49.468;11.200;2023-05-12T03:22:52;97695.63;;;18.76;53.33
50057;BME280;36875;49.468;11.200;2023-05-12T03:25:18;97701.84;;;18.76;53.19
50057;BME280;36875;49.468;11.200;2023-05-12T03:27:44;97706.50;;;18.76;53.16
50057;BME280;36875;49.468;11.200;2023-05-12T03:30:10;97693.19;;;18.74;53.12
50057;BME280;36875;49.468;11.200;2023-05-12T03:32:36;97697.84;;;18.74;53.34
50057;BME280;36875;49.468;11.200;2023-05-12T03:35:05;97685.13;;;18.69;53.34
50057;BME280;36875;49.468;11.200;2023-05-12T03:37:31;97685.94;;;18.69;52.92
50057;BME280;36875;49.468;11.200;2023-05-12T03:39:56;97691.59;;;18.73;53.11
50057;BME280;36875;49.468;11.200;2023-05-12T03:42:24;97697.84;;;18.74;52.90
50057;BME280;36875;49.468;11.200;2023-05-12T03:44:49;97691.59;;;18.73;53.01
50057;BME280;36875;49.468;11.200;2023-05-12T03:47:15;97692.38;;;18.74;53.29
50057;BME280;36875;49.468;11.200;2023-05-12T03:49:40;97697.84;;;18.74;52.88
50057;BME280;36875;49.468;11.200;2023-05-12T03:52:08;97690.75;;;18.73;53.20
50057;BME280;36875;49.468;11.200;2023-05-12T03:54:33;97693.50;;;18.73;52.86
50057;BME280;36875;49.468;11.200;2023-05-12T03:56:59;97701.66;;;18.73;53.11
50057;BME280;36875;49.468;11.200;2023-05-12T03:59:25;97699.78;;;18.73;53.32
50057;BME280;36875;49.468;11.200;2023-05-12T04:01:51;97689.59;;;18.65;52.85
50057;BME280;36875;49.468;11.200;2023-05-12T04:04:17;97696.03;;;18.69;52.75
50057;BME280;36875;49.468;11.200;2023-05-12T04:06:43;97691.91;;;18.72;53.14
50057;BME280;36875;49.468;11.200;2023-05-12T04:09:09;97696.22;;;18.73;52.81
50057;BME280;36875;49.468;11.200;2023-05-12T04:11:34;97704.72;;;18.71;53.16
50057;BME280;36875;49.468;11.200;2023-05-12T04:14:01;97708.25;;;18.72;52.82
50057;BME280;36875;49.468;11.200;2023-05-12T04:16:28;97705.53;;;18.72;52.86
50057;BME280;36875;49.468;11.200;2023-05-12T04:18:53;97707.75;;;18.69;53.02
50057;BME280;36875;49.468;11.200;2023-05-12T04:21:19;97707.47;;;18.71;52.64
50057;BME280;36875;49.468;11.200;2023-05-12T04:23:44;97717.53;;;18.71;53.09
50057;BME280;36875;49.468;11.200;2023-05-12T04:26:10;97708.56;;;18.70;53.05
50057;BME280;36875;49.468;11.200;2023-05-12T04:28:35;97713.22;;;18.69;52.67
50057;BME280;36875;49.468;11.200;2023-05-12T04:31:01;97702.13;;;18.66;52.98
50057;BME280;36875;49.468;11.200;2023-05-12T04:33:29;97704.19;;;18.69;52.96
50057;BME280;36875;49.468;11.200;2023-05-12T04:35:55;97713.22;;;18.69;52.61
50057;BME280;36875;49.468;11.200;2023-05-12T04:38:21;97715.09;;;18.69;52.62
50057;BME280;36875;49.468;11.200;2023-05-12T04:40:46;97713.22;;;18.69;52.64
50057;BME280;36875;49.468;11.200;2023-05-12T04:43:12;97711.59;;;18.68;52.61
50057;BME280;36875;49.468;11.200;2023-05-12T04:45:38;97705.75;;;18.61;52.94
50057;BME280;36875;49.468;11.200;2023-05-12T04:48:03;97717.03;;;18.68;52.93
50057;BME280;36875;49.468;11.200;2023-05-12T04:50:30;97709.47;;;18.65;52.98
50057;BME280;36875;49.468;11.200;2023-05-12T04:52:56;97715.44;;;18.67;52.76
50057;BME280;36875;49.468;11.200;2023-05-12T04:55:21;97708.97;;;18.63;53.13
50057;BME280;36875;49.468;11.200;2023-05-12T04:57:47;97715.44;;;18.67;52.79
50057;BME280;36875;49.468;11.200;2023-05-12T05:00:13;97707.97;;;18.59;52.80
50057;BME280;36875;49.468;11.200;2023-05-12T05:02:39;97726.34;;;18.67;52.50
50057;BME280;36875;49.468;11.200;2023-05-12T05:05:05;97718.78;;;18.64;52.75
50057;BME280;36875;49.468;11.200;2023-05-12T05:07:32;97729.06;;;18.67;52.98
50057;BME280;36875;49.468;11.200;2023-05-12T05:09:58;97726.94;;;18.64;52.87
50057;BME280;36875;49.468;11.200;2023-05-12T05:12:23;97720.06;;;18.67;52.46
50057;BME280;36875;49.468;11.200;2023-05-12T05:14:50;97726.94;;;18.64;52.47
50057;BME280;36875;49.468;11.200;2023-05-12T05:17:15;97732.09;;;18.66;52.98
50057;BME280;36875;49.468;11.200;2023-05-12T05:19:40;97735.63;;;18.66;52.86
50057;BME280;36875;49.468;11.200;2023-05-12T05:22:06;97729.38;;;18.66;52.72
50057;BME280;36875;49.468;11.200;2023-05-12T05:24:33;97740.28;;;18.66;52.95
50057;BME280;36875;49.468;11.200;2023-05-12T05:26:58;97734.00;;;18.65;52.88
50057;BME280;36875;49.468;11.200;2023-05-12T05:29:24;97733.19;;;18.65;52.67
50057;BME280;36875;49.468;11.200;2023-05-12T05:31:51;97733.19;;;18.65;52.66
50057;BME280;36875;49.468;11.200;2023-05-12T05:34:16;97736.72;;;18.65;52.82
50057;BME280;36875;49.468;11.200;2023-05-12T05:36:42;97735.91;;;18.65;53.23
50057;BME280;36875;49.468;11.200;2023-05-12T05:39:08;97736.22;;;18.63;53.35
50057;BME280;36875;49.468;11.200;2023-05-12T05:41:36;97738.66;;;18.65;53.23
50057;BME280;36875;49.468;11.200;2023-05-12T05:44:01;97740.28;;;18.66;53.40
50057;BME280;36875;49.468;11.200;2023-05-12T05:46:27;97740.28;;;18.66;53.22
50057;BME280;36875;49.468;11.200;2023-05-12T05:48:54;97741.66;;;18.63;53.40
50057;BME280;36875;49.468;11.200;2023-05-12T05:51:20;97743.78;;;18.66;53.18
50057;BME280;36875;49.468;11.200;2023-05-12T05:53:45;97741.38;;;18.65;53.35
50057;BME280;36875;49.468;11.200;2023-05-12T05:56:11;97751.97;;;18.66;53.27
50057;BME280;36875;49.468;11.200;2023-05-12T05:58:38;97743.28;;;18.64;52.73
50057;BME280;36875;49.468;11.200;2023-05-12T06:01:03;97742.09;;;18.57;52.83
50057;BME280;36875;49.468;11.200;2023-05-12T06:03:29;97754.50;;;18.63;52.62
50057;BME280;36875;49.468;11.200;2023-05-12T06:05:55;97746.72;;;18.56;52.48
50057;BME280;36875;49.468;11.200;2023-05-12T06:08:20;97760.75;;;18.63;52.49
50057;BME280;36875;49.468;11.200;2023-05-12T06:10:46;97762.69;;;18.63;52.54
50057;BME280;36875;49.468;11.200;2023-05-12T06:13:11;97755.31;;;18.63;52.36
50057;BME280;36875;49.468;11.200;2023-05-12T06:15:38;97764.59;;;18.62;52.54
50057;BME280;36875;49.468;11.200;2023-05-12T06:18:04;97752.91;;;18.62;52.35
50057;BME280;36875;49.468;11.200;2023-05-12T06:20:30;97758.34;;;18.62;52.76
50057;BME280;36875;49.468;11.200;2023-05-12T06:22:56;97767.31;;;18.62;52.59
50057;BME280;36875;49.468;11.200;2023-05-12T06:25:21;97769.25;;;18.62;52.87
50057;BME280;36875;49.468;11.200;2023-05-12T06:27:49;97761.97;;;18.57;52.62
50057;BME280;36875;49.468;11.200;2023-05-12T06:30:15;97767.31;;;18.62;52.74
50057;BME280;36875;49.468;11.200;2023-05-12T06:32:42;97776.59;;;18.61;52.62
50057;BME280;36875;49.468;11.200;2023-05-12T06:35:08;97772.78;;;18.62;52.66
50057;BME280;36875;49.468;11.200;2023-05-12T06:37:34;97782.88;;;18.62;52.78
50057;BME280;36875;49.468;11.200;2023-05-12T06:39:59;97779.34;;;18.61;52.96
50057;BME280;36875;49.468;11.200;2023-05-12T06:42:25;97782.06;;;18.61;52.53
50057;BME280;36875;49.468;11.200;2023-05-12T06:44:50;97785.59;;;18.62;52.94
50057;BME280;36875;49.468;11.200;2023-05-12T06:47:16;97776.59;;;18.61;52.98
50057;BME280;36875;49.468;11.200;2023-05-12T06:49:43;97768.03;;;18.54;52.86
50057;BME280;36875;49.468;11.200;2023-05-12T06:52:08;97785.91;;;18.60;52.62
50057;BME280;36875;49.468;11.200;2023-05-12T06:54:34;97762.19;;;18.47;52.94
50057;BME280;36875;49.468;11.200;2023-05-12T06:56:59;97782.06;;;18.61;52.77
50057;BME280;36875;49.468;11.200;2023-05-12T06:59:25;97782.06;;;18.61;52.81
50057;BME280;36875;49.468;11.200;2023-05-12T07:01:50;97775.59;;;18.57;53.12
50057;BME280;36875;49.468;11.200;2023-05-12T07:04:16;97782.88;;;18.62;52.82
50057;BME280;36875;49.468;11.200;2023-05-12T07:06:43;97783.19;;;18.60;53.07
50057;BME280;36875;49.468;11.200;2023-05-12T07:09:08;97784.47;;;18.63;52.99
50057;BME280;36875;49.468;11.200;2023-05-12T07:11:34;97779.97;;;18.58;52.95
50057;BME280;36875;49.468;11.200;2023-05-12T07:14:00;97797.31;;;18.62;52.63
50057;BME280;36875;49.468;11.200;2023-05-12T07:16:25;97793.78;;;18.62;53.12
50057;BME280;36875;49.468;11.200;2023-05-12T07:18:50;97790.22;;;18.61;52.96
50057;BME280;36875;49.468;11.200;2023-05-12T07:21:16;97791.84;;;18.62;52.78
50057;BME280;36875;49.468;11.200;2023-05-12T07:23:45;97769.75;;;18.50;52.86
50057;BME280;36875;49.468;11.200;2023-05-12T07:26:11;97781.06;;;18.57;53.06
50057;BME280;36875;49.468;11.200;2023-05-12T07:28:36;97791.06;;;18.62;52.81
50057;BME280;36875;49.468;11.200;2023-05-12T07:31:02;97782.69;;;18.58;53.15
50057;BME280;36875;49.468;11.200;2023-05-12T07:33:28;97789.44;;;18.61;52.86
50057;BME280;36875;49.468;11.200;2023-05-12T07:35:54;97785.91;;;18.60;52.75
50057;BME280;36875;49.468;11.200;2023-05-12T07:38:19;97789.94;;;18.63;52.75
50057;BME280;36875;49.468;11.200;2023-05-12T07:40:46;97794.59;;;18.62;53.01
50057;BME280;36875;49.468;11.200;2023-05-12T07:43:12;97790.22;;;18.61;53.23
50057;BME280;36875;49.468;11.200;2023-05-12T07:45:37;97798.09;;;18.63;52.94
50057;BME280;36875;49.468;11.200;2023-05-12T07:48:03;97797.31;;;18.62;53.03
50057;BME280;36875;49.468;11.200;2023-05-12T07:50:28;97794.59;;;18.62;53.04
50057;BME280;36875;49.468;11.200;2023-05-12T07:52:54;97793.78;;;18.62;52.79
50057;BME280;36875;49.468;11.200;2023-05-12T07:55:21;97791.38;;;18.60;53.15
50057;BME280;36875;49.468;11.200;2023-05-12T07:57:48;97798.41;;;18.61;53.18
50057;BME280;36875;49.468;11.200;2023-05-12T08:00:14;97795.69;;;18.61;52.94
50057;BME280;36875;49.468;11.200;2023-05-12T08:02:41;97799.34;;;18.57;52.98
50057;BME280;36875;49.468;11.200;2023-05-12T08:12:13;97798.31;;;18.53;52.73
50057;BME280;36875;49.468;11.200;2023-05-12T08:58:36;97823.03;;;18.56;52.72
50057;BME280;36875;49.468;11.200;2023-05-12T09:01:03;97826.88;;;18.55;52.78
50057;BME280;36875;49.468;11.200;2023-05-12T09:03:29;97825.25;;;18.54;53.08
50057;BME280;36875;49.468;11.200;2023-05-12T09:05:56;97812.16;;;18.42;52.86
50057;BME280;36875;49.468;11.200;2023-05-12T09:08:23;97833.94;;;18.56;52.65
50057;BME280;36875;49.468;11.200;2023-05-12T09:10:49;97832.34;;;18.55;52.97
50057;BME280;36875;49.468;11.200;2023-05-12T09:13:19;97819.03;;;18.40;52.52
50057;BME280;36875;49.468;11.200;2023-05-12T09:15:50;97838.88;;;18.54;52.53
50057;BME280;36875;49.468;11.200;2023-05-12T09:18:18;97837.78;;;18.55;52.73
50057;BME280;36875;49.468;11.200;2023-05-12T09:20:43;97836.16;;;18.54;52.58
50057;BME280;36875;49.468;11.200;2023-05-12T09:23:13;97836.16;;;18.54;52.85
50057;BME280;36875;49.468;11.200;2023-05-12T09:25:39;97837.00;;;18.55;52.70
50057;BME280;36875;49.468;11.200;2023-05-12T09:28:05;97829.13;;;18.53;52.65
50057;BME280;36875;49.468;11.200;2023-05-12T09:30:31;97835.38;;;18.54;53.11
50057;BME280;36875;49.468;11.200;2023-05-12T09:33:09;97833.44;;;18.54;52.74
50057;BME280;36875;49.468;11.200;2023-05-12T09:35:38;97835.38;;;18.54;52.98
50057;BME280;36875;49.468;11.200;2023-05-12T09:38:07;97836.16;;;18.54;53.00
50057;BME280;36875;49.468;11.200;2023-05-12T09:40:33;97826.78;;;18.46;52.77
50057;BME280;36875;49.468;11.200;2023-05-12T09:42:59;97828.63;;;18.51;53.01
50057;BME280;36875;49.468;11.200;2023-05-12T09:45:25;97832.94;;;18.52;53.22
50057;BME280;36875;49.468;11.200;2023-05-12T09:47:50;97809.72;;;18.41;53.04
50057;BME280;36875;49.468;11.200;2023-05-12T09:50:17;97827.97;;;18.54;53.14
50057;BME280;36875;49.468;11.200;2023-05-12T09:52:43;97837.28;;;18.53;53.56
50057;BME280;36875;49.468;11.200;2023-05-12T09:55:10;97831.84;;;18.53;53.48
50057;BME280;36875;49.468;11.200;2023-05-12T09:57:38;97818.91;;;18.45;53.06
50057;BME280;36875;49.468;11.200;2023-05-12T10:00:07;97822.13;;;18.47;53.29
50057;BME280;36875;49.468;11.200;2023-05-12T10:02:33;97830.50;;;18.50;53.30
50057;BME280;36875;49.468;11.200;2023-05-12T10:05:01;97833.72;;;18.53;53.12
50057;BME280;36875;49.468;11.200;2023-05-12T10:07:31;97820.53;;;18.46;53.39
50057;BME280;36875;49.468;11.200;2023-05-12T10:10:00;97827.47;;;18.52;53.61
50057;BME280;36875;49.468;11.200;2023-05-12T10:12:27;97799.03;;;18.30;53.38
50057;BME280;36875;49.468;11.200;2023-05-12T10:14:53;97828.09;;;18.49;53.41
50057;BME280;36875;49.468;11.200;2023-05-12T10:17:24;97830.22;;;18.52;53.37
50057;BME280;36875;49.468;11.200;2023-05-12T10:19:51;97832.13;;;18.52;53.52
50057;BME280;36875;49.468;11.200;2023-05-12T10:22:18;97828.09;;;18.49;53.64
50057;BME280;36875;49.468;11.200;2023-05-12T10:24:46;97832.22;;;18.46;53.94
50057;BME280;36875;49.468;11.200;2023-05-12T10:27:14;97835.66;;;18.52;53.68
50057;BME280;36875;49.468;11.200;2023-05-12T10:29:41;97839.19;;;18.53;53.89
50057;BME280;36875;49.468;11.200;2023-05-12T10:32:08;97835.97;;;18.50;54.09
50057;BME280;36875;49.468;11.200;2023-05-12T10:34:34;97841.09;;;18.52;53.83
50057;BME280;36875;49.468;11.200;2023-05-12T10:37:03;97850.41;;;18.51;53.59
50057;BME280;36875;49.468;11.200;2023-05-12T10:39:32;97837.38;;;18.48;53.91
50057;BME280;36875;49.468;11.200;2023-05-12T10:42:06;97809.41;;;18.28;53.82
50057;BME280;36875;49.468;11.200;2023-05-12T10:44:32;97835.25;;;18.45;53.72
50057;BME280;36875;49.468;11.200;2023-05-12T10:46:58;97840.09;;;18.48;53.44
50057;BME280;36875;49.468;11.200;2023-05-12T10:49:31;97845.75;;;18.52;53.70
50057;BME280;36875;49.468;11.200;2023-05-12T10:51:58;97847.69;;;18.51;53.80
50057;BME280;36875;49.468;11.200;2023-05-12T10:54:25;97830.00;;;18.48;53.39
50057;BME280;36875;49.468;11.200;2023-05-12T10:56:51;97844.47;;;18.49;53.48
50057;BME280;36875;49.468;11.200;2023-05-12T10:59:19;97843.34;;;18.50;53.69
50057;BME280;36875;49.468;11.200;2023-05-12T11:01:59;97849.91;;;18.49;53.48
50057;BME280;36875;49.468;11.200;2023-05-12T11:04:37;97839.00;;;18.49;53.48
50057;BME280;36875;49.468;11.200;2023-05-12T11:07:05;97851.50;;;18.50;53.31
50057;BME280;36875;49.468;11.200;2023-05-12T11:09:35;97846.66;;;18.47;53.43
50057;BME280;36875;49.468;11.200;2023-05-12T11:12:01;97845.56;;;18.48;53.47
50057;BME280;36875;49.468;11.200;2023-05-12T11:14:28;97847.69;;;18.51;53.72
50057;BME280;36875;49.468;11.200;2023-05-12T11:16:53;97843.34;;;18.50;53.66
50057;BME280;36875;49.468;11.200;2023-05-12T11:19:19;97849.59;;;18.50;54.02
50057;BME280;36875;49.468;11.200;2023-05-12T11:21:44;97843.44;;;18.45;53.85
50057;BME280;36875;49.468;11.200;2023-05-12T11:24:10;97851.50;;;18.50;53.85
50057;BME280;36875;49.468;11.200;2023-05-12T11:26:36;97853.13;;;18.51;53.99
50057;BME280;36875;49.468;11.200;2023-05-12T11:29:04;97836.47;;;18.39;54.18
50057;BME280;36875;49.468;11.200;2023-05-12T11:31:31;97854.31;;;18.45;53.93
50057;BME280;36875;49.468;11.200;2023-05-12T11:34:03;97862.41;;;18.50;53.97
50057;BME280;36875;49.468;11.200;2023-05-12T11:36:35;97851.31;;;18.46;53.96
50057;BME280;36875;49.468;11.200;2023-05-12T11:39:01;97862.41;;;18.50;54.02
50057;BME280;36875;49.468;11.200;2023-05-12T11:41:29;97864.34;;;18.49;54.09
50057;BME280;36875;49.468;11.200;2023-05-12T11:43:56;97860.28;;;18.47;54.40
50057;BME280;36875;49.468;11.200;2023-05-12T11:46:23;97863.22;;;18.50;54.06
50057;BME280;36875;49.468;11.200;2023-05-12T11:48:54;97867.06;;;18.49;53.92
50057;BME280;36875;49.468;11.200;2023-05-12T11:51:20;97865.13;;;18.50;54.17
50057;BME280;36875;49.468;11.200;2023-05-12T11:53:46;97858.97;;;18.44;54.24
50057;BME280;36875;49.468;11.200;2023-05-12T11:56:16;97870.59;;;18.50;53.89
50057;BME280;36875;49.468;11.200;2023-05-12T11:58:51;97872.50;;;18.49;54.13
50057;BME280;36875;49.468;11.200;2023-05-12T12:01:17;97874.44;;;18.49;54.22
50057;BME280;36875;49.468;11.200;2023-05-12T12:03:44;97874.44;;;18.49;54.01
50057;BME280;36875;49.468;11.200;2023-05-12T12:06:12;97875.53;;;18.48;54.27
50057;BME280;36875;49.468;11.200;2023-05-12T12:08:48;97871.19;;;18.47;54.13
50057;BME280;36875;49.468;11.200;2023-05-12T12:11:14;97880.97;;;18.48;54.18
50057;BME280;36875;49.468;11.200;2023-05-12T12:13:46;97880.97;;;18.48;53.96
50057;BME280;36875;49.468;11.200;2023-05-12T12:16:13;97879.97;;;18.44;54.26
50057;BME280;36875;49.468;11.200;2023-05-12T12:18:38;97886.44;;;18.48;53.98
50057;BME280;36875;49.468;11.200;2023-05-12T12:21:04;97874.31;;;18.40;53.90
50057;BME280;36875;49.468;11.200;2023-05-12T12:23:31;97892.69;;;18.48;53.90
50057;BME280;36875;49.468;11.200;2023-05-12T12:25:57;97888.06;;;18.49;53.79
50057;BME280;36875;49.468;11.200;2023-05-12T12:28:22;97887.53;;;18.47;53.86
50057;BME280;36875;49.468;11.200;2023-05-12T12:30:48;97876.25;;;18.40;53.75
50057;BME280;36875;49.468;11.200;2023-05-12T12:33:13;97895.69;;;18.47;53.78
50057;BME280;36875;49.468;11.200;2023-05-12T12:35:39;97886.31;;;18.39;53.82
50057;BME280;36875;49.468;11.200;2023-05-12T12:38:04;97892.97;;;18.47;53.96
50057;BME280;36875;49.468;11.200;2023-05-12T12:40:31;97883.88;;;18.38;53.83
50057;BME280;36875;49.468;11.200;2023-05-12T12:42:56;97895.19;;;18.45;53.84
50057;BME280;36875;49.468;11.200;2023-05-12T12:45:22;97891.47;;;18.41;53.68
50057;BME280;36875;49.468;11.200;2023-05-12T12:47:47;97901.16;;;18.47;53.79
50057;BME280;36875;49.468;11.200;2023-05-12T12:50:16;97891.97;;;18.43;53.63
50057;BME280;36875;49.468;11.200;2023-05-12T12:52:45;97893.09;;;18.42;53.95
50057;BME280;36875;49.468;11.200;2023-05-12T12:55:12;97900.34;;;18.46;53.59
50057;BME280;36875;49.468;11.200;2023-05-12T12:57:39;97901.16;;;18.47;53.77
50057;BME280;36875;49.468;11.200;2023-05-12T13:00:05;97862.38;;;18.22;53.43
50057;BME280;36875;49.468;11.200;2023-05-12T13:02:32;97903.38;;;18.45;53.68
50057;BME280;36875;49.468;11.200;2023-05-12T13:04:58;97896.91;;;18.41;53.55
50057;BME280;36875;49.468;11.200;2023-05-12T13:07:28;97905.00;;;18.46;53.62
50057;BME280;36875;49.468;11.200;2023-05-12T13:09:53;97901.16;;;18.47;53.63
50057;BME280;36875;49.468;11.200;2023-05-12T13:12:19;97898.22;;;18.43;53.67
50057;BME280;36875;49.468;11.200;2023-05-12T13:14:46;97893.09;;;18.42;53.44
50057;BME280;36875;49.468;11.200;2023-05-12T13:17:12;97902.06;;;18.42;53.76
50057;BME280;36875;49.468;11.200;2023-05-12T13:19:37;97902.56;;;18.44;53.47
50057;BME280;36875;49.468;11.200;2023-05-12T13:22:03;97906.09;;;18.45;53.80
50057;BME280;36875;49.468;11.200;2023-05-12T13:24:29;97902.56;;;18.44;53.51
50057;BME280;36875;49.468;11.200;2023-05-12T13:26:54;97907.22;;;18.44;53.75
50057;BME280;36875;49.468;11.200;2023-05-12T13:29:21;97877.53;;;18.28;53.35
50057;BME280;36875;49.468;11.200;2023-05-12T13:31:47;97900.94;;;18.43;53.70
50057;BME280;36875;49.468;11.200;2023-05-12T13:34:13;97901.47;;;18.45;53.42
50057;BME280;36875;49.468;11.200;2023-05-12T13:36:39;97899.66;;;18.41;53.45